sensor_id;sensor_type;location;lat;lon;timestamp;pressure;altitude;pressure_sealevel;temperature;humidity
42587;BME280;28216;53.362;-6.288;2023-04-10T00:01:34;100322.16;;;11.36;100.00
42587;BME280;28216;53.362;-6.288;2023-04-10T00:04:03;100324.19;;;11.26;100.00
42587;BME280;28216;53.362;-6.288;2023-04-10T00:06:30;100318.13;;;11.26;100.00
42587;BME280;28216;53.362;-6.288;2023-04-10T00:08:58;100318.13;;;11.26;100.00
42587;BME280;28216;53.362;-6.288;2023-04-10T00:11:24;100319.34;;;11.15;100.00
42587;BME280;28216;53.362;-6.288;2023-04-10T00:13:50;100322.97;;;11.06;100.00
42587;BME280;28216;53.362;-6.288;2023-04-10T00:16:15;100312.19;;;11.01;100.00
42587;BME280;28216;53.362;-6.288;2023-04-10T00:18:41;100314.81;;;11.01;100.00
42587;BME280;28216;53.362;-6.288;2023-04-10T00:21:06;100317.78;;;10.98;100.00
42587;BME280;28216;53.362;-6.288;2023-04-10T00:23:32;100312.69;;;10.96;100.00
42587;BME280;28216;53.362;-6.288;2023-04-10T00:25:59;100325.22;;;10.86;100.00
42587;BME280;28216;53.362;-6.288;2023-04-10T00:28:25;100329.28;;;10.89;100.00
42587;BME280;28216;53.362;-6.288;2023-04-10T00:30:50;100323.56;;;10.85;100.00
42587;BME280;28216;53.362;-6.288;2023-04-10T00:33:15;100325.22;;;10.86;100.00
42587;BME280;28216;53.362;-6.288;2023-04-10T00:35:41;100321.63;;;10.79;100.00
42587;BME280;28216;53.362;-6.288;2023-04-10T00:38:06;100327.53;;;10.81;100.00
42587;BME280;28216;53.362;-6.288;2023-04-10T00:40:32;100330.84;;;10.75;100.00
42587;BME280;28216;53.362;-6.288;2023-04-10T00:42:58;100319.06;;;10.71;100.00
42587;BME280;28216;53.362;-6.288;2023-04-10T00:45:23;100317.41;;;10.70;100.00
42587;BME280;28216;53.362;-6.288;2023-04-10T00:47:50;100317.25;;;10.71;100.00
42587;BME280;28216;53.362;-6.288;2023-04-10T00:50:16;100313.84;;;10.63;100.00
42587;BME280;28216;53.362;-6.288;2023-04-10T00:52:41;100309.72;;;10.68;100.00
42587;BME280;28216;53.362;-6.288;2023-04-10T00:55:07;100314.50;;;10.65;100.00
42587;BME280;28216;53.362;-6.288;2023-04-10T00:57:33;100300.09;;;10.61;100.00
42587;BME280;28216;53.362;-6.288;2023-04-10T01:00:00;100299.44;;;10.59;100.00
42587;BME280;28216;53.362;-6.288;2023-04-10T01:02:25;100299.09;;;10.62;100.00
42587;BME280;28216;53.362;-6.288;2023-04-10T01:04:51;100304.34;;;10.62;100.00
42587;BME280;28216;53.362;-6.288;2023-04-10T01:07:21;100302.72;;;10.61;100.00
42587;BME280;28216;53.362;-6.288;2023-04-10T01:10:43;100286.31;;;10.67;100.00
42587;BME280;28216;53.362;-6.288;2023-04-10T01:13:22;100296.47;;;10.62;100.00
42587;BME280;28216;53.362;-6.288;2023-04-10T01:21:57;100287.97;;;10.60;100.00
42587;BME280;28216;53.362;-6.288;2023-04-10T01:30:00;100278.47;;;10.59;100.00
42587;BME280;28216;53.362;-6.288;2023-04-10T01:32:28;100281.75;;;10.61;100.00
42587;BME280;28216;53.362;-6.288;2023-04-10T01:34:58;100262.28;;;10.55;100.00
42587;BME280;28216;53.362;-6.288;2023-04-10T01:37:30;100269.97;;;10.57;100.00
42587;BME280;28216;53.362;-6.288;2023-04-10T01:40:03;100267.66;;;10.62;100.00
42587;BME280;28216;53.362;-6.288;2023-04-10T01:42:34;100268.00;;;10.59;100.00
42587;BME280;28216;53.362;-6.288;2023-04-10T01:45:04;100258.03;;;10.54;100.00
42587;BME280;28216;53.362;-6.288;2023-04-10T01:47:32;100260.44;;;10.64;100.00
42587;BME280;28216;53.362;-6.288;2023-04-10T01:49:59;100267.13;;;10.66;100.00
42587;BME280;28216;53.362;-6.288;2023-04-10T01:52:26;100254.84;;;10.67;100.00
42587;BME280;28216;53.362;-6.288;2023-04-10T01:54:52;100255.47;;;10.69;100.00
42587;BME280;28216;53.362;-6.288;2023-04-10T01:57:19;100260.22;;;10.73;100.00
42587;BME280;28216;53.362;-6.288;2023-04-10T01:59:46;100250.88;;;10.71;100.00
42587;BME280;28216;53.362;-6.288;2023-04-10T02:02:11;100247.09;;;10.73;100.00
42587;BME280;28216;53.362;-6.288;2023-04-10T02:04:37;100252.34;;;10.73;100.00
42587;BME280;28216;53.362;-6.288;2023-04-10T02:09:49;100241.56;;;10.68;100.00
42587;BME280;28216;53.362;-6.288;2023-04-10T02:12:31;100247.44;;;10.70;100.00
42587;BME280;28216;53.362;-6.288;2023-04-10T02:15:01;100249.13;;;10.63;100.00
42587;BME280;28216;53.362;-6.288;2023-04-10T02:17:30;100245.84;;;10.61;100.00
42587;BME280;28216;53.362;-6.288;2023-04-10T02:19:57;100252.72;;;10.62;100.00
42587;BME280;28216;53.362;-6.288;2023-04-10T02:22:24;100250.41;;;10.67;100.00
42587;BME280;28216;53.362;-6.288;2023-04-10T02:24:50;100246.34;;;10.65;100.00
42587;BME280;28216;53.362;-6.288;2023-04-10T02:27:29;100236.31;;;10.68;100.00
42587;BME280;28216;53.362;-6.288;2023-04-10T02:29:54;100225.19;;;10.66;100.00
42587;BME280;28216;53.362;-6.288;2023-04-10T02:32:21;100230.59;;;10.65;100.00
42587;BME280;28216;53.362;-6.288;2023-04-10T02:34:47;100241.56;;;10.68;100.00
42587;BME280;28216;53.362;-6.288;2023-04-10T02:37:12;100226.16;;;10.65;100.00
42587;BME280;28216;53.362;-6.288;2023-04-10T02:39:38;100234.97;;;10.72;100.00
42587;BME280;28216;53.362;-6.288;2023-04-10T02:42:03;100233.34;;;10.71;100.00
42587;BME280;28216;53.362;-6.288;2023-04-10T02:44:29;100237.94;;;10.69;100.00
42587;BME280;28216;53.362;-6.288;2023-04-10T02:46:54;100242.19;;;10.70;100.00
42587;BME280;28216;53.362;-6.288;2023-04-10T02:49:20;100236.44;;;10.75;100.00
42587;BME280;28216;53.362;-6.288;2023-04-10T02:51:45;100228.06;;;10.79;100.00
42587;BME280;28216;53.362;-6.288;2023-04-10T02:54:10;100224.66;;;10.71;100.00
42587;BME280;28216;53.362;-6.288;2023-04-10T02:56:36;100221.53;;;10.75;100.00
42587;BME280;28216;53.362;-6.288;2023-04-10T02:59:01;100224.44;;;10.80;100.00
42587;BME280;28216;53.362;-6.288;2023-04-10T03:01:27;100218.38;;;10.80;100.00
42587;BME280;28216;53.362;-6.288;2023-04-10T03:03:53;100222.34;;;10.76;100.00
42587;BME280;28216;53.362;-6.288;2023-04-10T03:06:18;100223.28;;;10.83;100.00
42587;BME280;28216;53.362;-6.288;2023-04-10T03:08:43;100216.22;;;10.83;100.00
42587;BME280;28216;53.362;-6.288;2023-04-10T03:11:09;100219.84;;;10.82;100.00
42587;BME280;28216;53.362;-6.288;2023-04-10T03:13:34;100217.91;;;10.76;100.00
42587;BME280;28216;53.362;-6.288;2023-04-10T03:16:00;100224.91;;;10.84;100.00
42587;BME280;28216;53.362;-6.288;2023-04-10T03:18:25;100222.63;;;10.81;100.00
42587;BME280;28216;53.362;-6.288;2023-04-10T03:20:51;100213.06;;;10.88;100.00
42587;BME280;28216;53.362;-6.288;2023-04-10T03:23:16;100209.28;;;10.91;100.00
42587;BME280;28216;53.362;-6.288;2023-04-10T03:25:42;100217.34;;;10.89;100.00
42587;BME280;28216;53.362;-6.288;2023-04-10T03:28:07;100211.84;;;10.76;100.00
42587;BME280;28216;53.362;-6.288;2023-04-10T03:30:33;100208.59;;;10.74;100.00
42587;BME280;28216;53.362;-6.288;2023-04-10T03:33:01;100206.31;;;10.71;100.00
42587;BME280;28216;53.362;-6.288;2023-04-10T03:35:26;100218.59;;;10.70;100.00
42587;BME280;28216;53.362;-6.288;2023-04-10T03:37:52;100211.59;;;10.63;100.00
42587;BME280;28216;53.362;-6.288;2023-04-10T03:40:17;100208.81;;;10.64;100.00
42587;BME280;28216;53.362;-6.288;2023-04-10T03:42:43;100204.38;;;10.65;100.00
42587;BME280;28216;53.362;-6.288;2023-04-10T03:45:09;100198.03;;;10.59;100.00
42587;BME280;28216;53.362;-6.288;2023-04-10T03:47:35;100203.28;;;10.59;100.00
42587;BME280;28216;53.362;-6.288;2023-04-10T03:50:00;100196.44;;;10.50;100.00
42587;BME280;28216;53.362;-6.288;2023-04-10T03:52:26;100196.97;;;10.37;100.00
42587;BME280;28216;53.362;-6.288;2023-04-10T03:54:53;100191.59;;;10.31;100.00
42587;BME280;28216;53.362;-6.288;2023-04-10T03:57:19;100200.28;;;10.31;100.00
42587;BME280;28216;53.362;-6.288;2023-04-10T03:59:46;100198.81;;;10.29;100.00
42587;BME280;28216;53.362;-6.288;2023-04-10T04:02:11;100200.78;;;10.27;100.00
42587;BME280;28216;53.362;-6.288;2023-04-10T04:04:37;100198.00;;;10.28;100.00
42587;BME280;28216;53.362;-6.288;2023-04-10T04:07:02;100187.69;;;10.27;100.00
42587;BME280;28216;53.362;-6.288;2023-04-10T04:09:28;100188.19;;;10.22;100.00
42587;BME280;28216;53.362;-6.288;2023-04-10T04:11:53;100183.13;;;10.21;100.00
42587;BME280;28216;53.362;-6.288;2023-04-10T04:14:19;100178.41;;;10.08;100.00
42587;BME280;28216;53.362;-6.288;2023-04-10T04:16:44;100173.16;;;10.08;100.00
42587;BME280;28216;53.362;-6.288;2023-04-10T04:19:10;100168.31;;;9.97;100.00
42587;BME280;28216;53.362;-6.288;2023-04-10T04:21:35;100173.56;;;9.88;100.00
42587;BME280;28216;53.362;-6.288;2023-04-10T04:24:01;100171.94;;;9.87;100.00
42587;BME280;28216;53.362;-6.288;2023-04-10T04:26:26;100173.09;;;9.85;100.00
42587;BME280;28216;53.362;-6.288;2023-04-10T04:28:51;100179.47;;;9.82;100.00
42587;BME280;28216;53.362;-6.288;2023-04-10T04:31:17;100175.41;;;9.80;100.00
42587;BME280;28216;53.362;-6.288;2023-04-10T04:33:42;100180.63;;;9.80;100.00
42587;BME280;28216;53.362;-6.288;2023-04-10T04:36:08;100175.94;;;9.67;100.00
42587;BME280;28216;53.362;-6.288;2023-04-10T04:38:33;100175.41;;;9.64;100.00
42587;BME280;28216;53.362;-6.288;2023-04-10T04:40:59;100172.63;;;9.65;100.00
42587;BME280;28216;53.362;-6.288;2023-04-10T04:43:24;100171.34;;;9.61;100.00
42587;BME280;28216;53.362;-6.288;2023-04-10T04:45:50;100172.31;;;9.60;100.00
42587;BME280;28216;53.362;-6.288;2023-04-10T04:48:15;100165.63;;;9.57;100.00
42587;BME280;28216;53.362;-6.288;2023-04-10T04:50:41;100167.25;;;9.59;100.00
42587;BME280;28216;53.362;-6.288;2023-04-10T04:53:07;100162.00;;;9.59;100.00
42587;BME280;28216;53.362;-6.288;2023-04-10T04:55:33;100154.50;;;9.55;100.00
42587;BME280;28216;53.362;-6.288;2023-04-10T04:57:58;100148.44;;;9.55;100.00
42587;BME280;28216;53.362;-6.288;2023-04-10T05:00:24;100140.75;;;9.53;100.00
42587;BME280;28216;53.362;-6.288;2023-04-10T05:02:49;100147.81;;;9.53;100.00
42587;BME280;28216;53.362;-6.288;2023-04-10T05:05:15;100141.28;;;9.49;100.00
42587;BME280;28216;53.362;-6.288;2023-04-10T05:07:41;100142.91;;;9.50;100.00
42587;BME280;28216;53.362;-6.288;2023-04-10T05:10:07;100140.94;;;9.52;100.00
42587;BME280;28216;53.362;-6.288;2023-04-10T05:12:33;100134.22;;;9.49;100.00
42587;BME280;28216;53.362;-6.288;2023-04-10T05:14:58;100138.66;;;9.49;100.00
42587;BME280;28216;53.362;-6.288;2023-04-10T05:17:24;100142.25;;;9.48;100.00
42587;BME280;28216;53.362;-6.288;2023-04-10T05:19:50;100143.88;;;9.49;100.00
42587;BME280;28216;53.362;-6.288;2023-04-10T05:22:15;100145.53;;;9.50;100.00
42587;BME280;28216;53.362;-6.288;2023-04-10T05:24:41;100147.31;;;9.49;100.00
42587;BME280;28216;53.362;-6.288;2023-04-10T05:27:06;100142.25;;;9.48;100.00
42587;BME280;28216;53.362;-6.288;2023-04-10T05:29:32;100144.22;;;9.46;100.00
42587;BME280;28216;53.362;-6.288;2023-04-10T05:31:57;100152.06;;;9.46;100.00
42587;BME280;28216;53.362;-6.288;2023-04-10T05:34:22;100153.38;;;9.42;100.00
42587;BME280;28216;53.362;-6.288;2023-04-10T05:36:48;100156.66;;;9.44;100.00
42587;BME280;28216;53.362;-6.288;2023-04-10T05:39:13;100147.66;;;9.46;100.00
42587;BME280;28216;53.362;-6.288;2023-04-10T05:41:39;100141.59;;;9.54;100.00
42587;BME280;28216;53.362;-6.288;2023-04-10T05:44:05;100137.97;;;9.55;100.00
42587;BME280;28216;53.362;-6.288;2023-04-10T05:46:30;100146.16;;;9.60;100.00
42587;BME280;28216;53.362;-6.288;2023-04-10T05:48:56;100149.25;;;9.64;100.00
42587;BME280;28216;53.362;-6.288;2023-04-10T05:51:22;100136.66;;;9.67;100.00
42587;BME280;28216;53.362;-6.288;2023-04-10T05:53:49;100143.53;;;9.60;100.00
42587;BME280;28216;53.362;-6.288;2023-04-10T05:56:14;100142.56;;;9.69;100.00
42587;BME280;28216;53.362;-6.288;2023-04-10T05:58:39;100149.72;;;9.75;100.00
42587;BME280;28216;53.362;-6.288;2023-04-10T06:01:05;100150.88;;;9.73;100.00
42587;BME280;28216;53.362;-6.288;2023-04-10T06:03:31;100144.50;;;9.75;100.00
42587;BME280;28216;53.362;-6.288;2023-04-10T06:05:59;100143.03;;;9.65;100.00
42587;BME280;28216;53.362;-6.288;2023-04-10T06:08:24;100146.97;;;9.69;100.00
42587;BME280;28216;53.362;-6.288;2023-04-10T06:10:50;100144.97;;;9.79;100.00
42587;BME280;28216;53.362;-6.288;2023-04-10T06:13:15;100154.28;;;9.81;100.00
42587;BME280;28216;53.362;-6.288;2023-04-10T06:15:41;100148.22;;;9.89;100.00
42587;BME280;28216;53.362;-6.288;2023-04-10T06:18:06;100147.06;;;9.92;100.00
42587;BME280;28216;53.362;-6.288;2023-04-10T06:20:32;100145.03;;;10.02;100.00
42587;BME280;28216;53.362;-6.288;2023-04-10T06:22:58;100142.75;;;9.99;100.00
42587;BME280;28216;53.362;-6.288;2023-04-10T06:25:23;100143.25;;;10.02;100.00
42587;BME280;28216;53.362;-6.288;2023-04-10T06:27:49;100143.38;;;10.09;100.00
42587;BME280;28216;53.362;-6.288;2023-04-10T06:30:15;100147.41;;;10.19;100.00
42587;BME280;28216;53.362;-6.288;2023-04-10T06:32:40;100149.91;;;10.13;100.00
42587;BME280;28216;53.362;-6.288;2023-04-10T06:35:06;100149.56;;;10.16;100.00
42587;BME280;28216;53.362;-6.288;2023-04-10T06:37:31;100150.03;;;10.19;100.00
42587;BME280;28216;53.362;-6.288;2023-04-10T06:40:07;100146.75;;;10.26;100.00
42587;BME280;28216;53.362;-6.288;2023-04-10T06:42:34;100163.13;;;10.28;100.00
42587;BME280;28216;53.362;-6.288;2023-04-10T06:44:59;100168.00;;;10.31;100.00
42587;BME280;28216;53.362;-6.288;2023-04-10T06:47:25;100159.81;;;10.34;100.00
42587;BME280;28216;53.362;-6.288;2023-04-10T06:49:50;100172.09;;;10.33;100.00
42587;BME280;28216;53.362;-6.288;2023-04-10T06:52:17;100172.78;;;10.27;100.00
42587;BME280;28216;53.362;-6.288;2023-04-10T06:54:42;100172.97;;;10.17;100.00
42587;BME280;28216;53.362;-6.288;2023-04-10T06:57:08;100163.81;;;10.13;100.00
42587;BME280;28216;53.362;-6.288;2023-04-10T06:59:33;100167.28;;;10.06;100.00
42587;BME280;28216;53.362;-6.288;2023-04-10T07:02:01;100164.03;;;10.04;100.00
42587;BME280;28216;53.362;-6.288;2023-04-10T07:04:27;100163.06;;;9.97;100.00
42587;BME280;28216;53.362;-6.288;2023-04-10T07:06:52;100157.84;;;9.97;100.00
42587;BME280;28216;53.362;-6.288;2023-04-10T07:09:18;100162.13;;;9.90;100.00
42587;BME280;28216;53.362;-6.288;2023-04-10T07:11:43;100161.13;;;9.91;100.00
42587;BME280;28216;53.362;-6.288;2023-04-10T07:14:09;100159.34;;;9.83;100.00
42587;BME280;28216;53.362;-6.288;2023-04-10T07:16:34;100154.59;;;9.86;100.00
42587;BME280;28216;53.362;-6.288;2023-04-10T07:19:00;100158.53;;;9.82;100.00
42587;BME280;28216;53.362;-6.288;2023-04-10T07:21:25;100157.59;;;9.75;100.00
42587;BME280;28216;53.362;-6.288;2023-04-10T07:23:51;100163.81;;;9.74;100.00
42587;BME280;28216;53.362;-6.288;2023-04-10T07:26:17;100166.41;;;9.74;100.00
42587;BME280;28216;53.362;-6.288;2023-04-10T07:28:42;100162.84;;;9.67;100.00
42587;BME280;28216;53.362;-6.288;2023-04-10T07:31:08;100170.84;;;9.66;100.00
42587;BME280;28216;53.362;-6.288;2023-04-10T07:33:34;100163.66;;;9.60;100.00
42587;BME280;28216;53.362;-6.288;2023-04-10T07:36:00;100161.19;;;9.58;100.00
42587;BME280;28216;53.362;-6.288;2023-04-10T07:38:27;100156.81;;;9.50;100.00
42587;BME280;28216;53.362;-6.288;2023-04-10T07:40:56;100156.66;;;9.44;100.00
42587;BME280;28216;53.362;-6.288;2023-04-10T07:43:22;100158.94;;;9.47;100.00
42587;BME280;28216;53.362;-6.288;2023-04-10T07:45:48;100158.97;;;9.31;100.00
42587;BME280;28216;53.362;-6.288;2023-04-10T07:48:14;100159.78;;;9.31;100.00
42587;BME280;28216;53.362;-6.288;2023-04-10T07:50:39;100155.69;;;9.29;100.00
42587;BME280;28216;53.362;-6.288;2023-04-10T07:53:05;100154.72;;;9.30;100.00
42587;BME280;28216;53.362;-6.288;2023-04-10T07:55:38;100154.38;;;9.33;100.00
42587;BME280;28216;53.362;-6.288;2023-04-10T07:58:03;100153.41;;;9.34;100.00
42587;BME280;28216;53.362;-6.288;2023-04-10T08:00:29;100149.16;;;9.33;100.00
42587;BME280;28216;53.362;-6.288;2023-04-10T08:02:55;100154.56;;;9.31;100.00
42587;BME280;28216;53.362;-6.288;2023-04-10T08:05:20;100163.03;;;9.33;100.00
42587;BME280;28216;53.362;-6.288;2023-04-10T08:07:46;100156.19;;;9.32;100.00
42587;BME280;28216;53.362;-6.288;2023-04-10T08:10:11;100159.63;;;9.24;100.00
42587;BME280;28216;53.362;-6.288;2023-04-10T08:12:37;100147.84;;;9.29;100.00
42587;BME280;28216;53.362;-6.288;2023-04-10T08:15:02;100146.53;;;9.33;100.00
42587;BME280;28216;53.362;-6.288;2023-04-10T08:17:28;100152.09;;;9.30;100.00
42587;BME280;28216;53.362;-6.288;2023-04-10T08:19:53;100148.00;;;9.35;100.00
42587;BME280;28216;53.362;-6.288;2023-04-10T08:22:19;100145.88;;;9.31;100.00
42587;BME280;28216;53.362;-6.288;2023-04-10T08:24:44;100138.34;;;9.36;100.00
42587;BME280;28216;53.362;-6.288;2023-04-10T08:27:10;100140.47;;;9.40;100.00
42587;BME280;28216;53.362;-6.288;2023-04-10T08:29:35;100145.19;;;9.45;100.00
42587;BME280;28216;53.362;-6.288;2023-04-10T08:32:01;100144.69;;;9.49;100.00
42587;BME280;28216;53.362;-6.288;2023-04-10T08:34:26;100144.69;;;9.57;100.00
42587;BME280;28216;53.362;-6.288;2023-04-10T08:36:53;100142.22;;;9.64;100.00
42587;BME280;28216;53.362;-6.288;2023-04-10T08:39:18;100145.81;;;9.63;100.00
42587;BME280;28216;53.362;-6.288;2023-04-10T08:41:44;100147.28;;;9.66;100.00
42587;BME280;28216;53.362;-6.288;2023-04-10T08:44:10;100142.22;;;9.64;100.00
42587;BME280;28216;53.362;-6.288;2023-04-10T08:46:42;100145.66;;;9.73;100.00
42587;BME280;28216;53.362;-6.288;2023-04-10T08:52:00;100137.47;;;9.76;100.00
42587;BME280;28216;53.362;-6.288;2023-04-10T08:54:32;100135.97;;;9.81;100.00
42587;BME280;28216;53.362;-6.288;2023-04-10T08:56:58;100141.81;;;9.92;100.00
42587;BME280;28216;53.362;-6.288;2023-04-10T08:59:27;100127.06;;;9.99;100.00
42587;BME280;28216;53.362;-6.288;2023-04-10T09:01:54;100132.91;;;10.09;100.00
42587;BME280;28216;53.362;-6.288;2023-04-10T09:04:24;100125.50;;;10.12;100.00
42587;BME280;28216;53.362;-6.288;2023-04-10T09:06:54;100125.50;;;10.12;100.00
42587;BME280;28216;53.362;-6.288;2023-04-10T09:09:19;100122.53;;;10.15;100.00
42587;BME280;28216;53.362;-6.288;2023-04-10T09:14:21;100111.81;;;10.64;100.00
42587;BME280;28216;53.362;-6.288;2023-04-10T09:16:47;100119.22;;;10.98;100.00
42587;BME280;28216;53.362;-6.288;2023-04-10T09:19:13;100124.09;;;11.24;100.00
42587;BME280;28216;53.362;-6.288;2023-04-10T09:21:49;100110.28;;;11.60;100.00
42587;BME280;28216;53.362;-6.288;2023-04-10T09:24:14;100112.47;;;11.86;100.00
42587;BME280;28216;53.362;-6.288;2023-04-10T09:26:41;100111.06;;;11.75;100.00
42587;BME280;28216;53.362;-6.288;2023-04-10T09:29:06;100112.38;;;11.94;100.00
42587;BME280;28216;53.362;-6.288;2023-04-10T09:31:37;100099.41;;;12.07;100.00
42587;BME280;28216;53.362;-6.288;2023-04-10T09:34:19;100097.22;;;12.11;100.00
42587;BME280;28216;53.362;-6.288;2023-04-10T09:36:58;100095.47;;;12.18;100.00
42587;BME280;28216;53.362;-6.288;2023-04-10T09:39:36;100093.91;;;12.23;100.00
42587;BME280;28216;53.362;-6.288;2023-04-10T09:42:08;100090.91;;;12.26;100.00
42587;BME280;28216;53.362;-6.288;2023-04-10T09:44:37;100089.09;;;12.27;100.00
42587;BME280;28216;53.362;-6.288;2023-04-10T09:49:48;100092.31;;;12.44;100.00
42587;BME280;28216;53.362;-6.288;2023-04-10T09:54:56;100081.09;;;12.56;100.00
42587;BME280;28216;53.362;-6.288;2023-04-10T09:57:23;100091.06;;;12.82;100.00
42587;BME280;28216;53.362;-6.288;2023-04-10T09:59:51;100091.13;;;12.67;100.00
42587;BME280;28216;53.362;-6.288;2023-04-10T10:02:19;100087.81;;;12.80;100.00
42587;BME280;28216;53.362;-6.288;2023-04-10T10:04:46;100082.06;;;12.98;100.00
42587;BME280;28216;53.362;-6.288;2023-04-10T10:07:16;100086.28;;;12.92;100.00
42587;BME280;28216;53.362;-6.288;2023-04-10T10:09:44;100088.19;;;12.77;100.00
42587;BME280;28216;53.362;-6.288;2023-04-10T10:17:21;100087.16;;;12.14;100.00
42587;BME280;28216;53.362;-6.288;2023-04-10T10:20:05;100088.56;;;11.81;100.00
42587;BME280;28216;53.362;-6.288;2023-04-10T10:22:33;100084.56;;;11.55;100.00
42587;BME280;28216;53.362;-6.288;2023-04-10T10:25:01;100087.81;;;11.57;100.00
42587;BME280;28216;53.362;-6.288;2023-04-10T10:27:27;100086.53;;;11.68;100.00
42587;BME280;28216;53.362;-6.288;2023-04-10T10:29:55;100075.78;;;11.63;100.00
42587;BME280;28216;53.362;-6.288;2023-04-10T10:32:23;100070.34;;;11.64;100.00
42587;BME280;28216;53.362;-6.288;2023-04-10T10:34:51;100064.78;;;12.03;100.00
42587;BME280;28216;53.362;-6.288;2023-04-10T10:37:18;100062.00;;;12.26;100.00
42587;BME280;28216;53.362;-6.288;2023-04-10T10:40:11;100061.38;;;12.24;100.00
42587;BME280;28216;53.362;-6.288;2023-04-10T10:42:49;100061.88;;;12.34;100.00
42587;BME280;28216;53.362;-6.288;2023-04-10T10:45:31;100059.63;;;12.31;100.00
42587;BME280;28216;53.362;-6.288;2023-04-10T10:47:57;100054.81;;;12.56;100.00
42587;BME280;28216;53.362;-6.288;2023-04-10T10:50:23;100050.34;;;12.57;100.00
42587;BME280;28216;53.362;-6.288;2023-04-10T10:52:50;100050.28;;;12.50;100.00
42587;BME280;28216;53.362;-6.288;2023-04-10T10:57:48;100054.81;;;12.35;100.00
42587;BME280;28216;53.362;-6.288;2023-04-10T11:00:16;100054.63;;;12.36;100.00
42587;BME280;28216;53.362;-6.288;2023-04-10T11:02:41;100045.91;;;12.36;100.00
42587;BME280;28216;53.362;-6.288;2023-04-10T11:05:07;100050.75;;;12.32;100.00
42587;BME280;28216;53.362;-6.288;2023-04-10T11:08:09;100045.66;;;12.09;100.00
42587;BME280;28216;53.362;-6.288;2023-04-10T11:10:58;100039.22;;;12.12;100.00
42587;BME280;28216;53.362;-6.288;2023-04-10T11:13:25;100041.03;;;12.33;100.00
42587;BME280;28216;53.362;-6.288;2023-04-10T11:15:50;100042.03;;;12.32;100.00
42587;BME280;28216;53.362;-6.288;2023-04-10T11:18:16;100042.66;;;12.34;100.00
42587;BME280;28216;53.362;-6.288;2023-04-10T11:21:07;100035.28;;;12.23;100.00
42587;BME280;28216;53.362;-6.288;2023-04-10T11:23:34;100030.69;;;12.53;100.00
42587;BME280;28216;53.362;-6.288;2023-04-10T11:26:00;100028.47;;;13.05;100.00
42587;BME280;28216;53.362;-6.288;2023-04-10T11:31:18;100017.72;;;13.70;100.00
42587;BME280;28216;53.362;-6.288;2023-04-10T11:36:22;100038.53;;;13.23;100.00
42587;BME280;28216;53.362;-6.288;2023-04-10T11:41:27;100041.59;;;12.07;100.00
42587;BME280;28216;53.362;-6.288;2023-04-10T11:43:56;100043.28;;;11.78;100.00
42587;BME280;28216;53.362;-6.288;2023-04-10T11:46:22;100046.91;;;11.48;100.00
42587;BME280;28216;53.362;-6.288;2023-04-10T11:48:51;100051.81;;;11.36;100.00
42587;BME280;28216;53.362;-6.288;2023-04-10T11:51:17;100059.78;;;11.28;100.00
42587;BME280;28216;53.362;-6.288;2023-04-10T11:53:42;100062.22;;;11.15;100.00
42587;BME280;28216;53.362;-6.288;2023-04-10T11:56:15;100074.19;;;11.09;100.00
42587;BME280;28216;53.362;-6.288;2023-04-10T11:58:41;100088.91;;;10.81;100.00
42587;BME280;28216;53.362;-6.288;2023-04-10T12:01:07;100089.31;;;10.70;100.00
42587;BME280;28216;53.362;-6.288;2023-04-10T12:03:40;100087.16;;;10.50;100.00
42587;BME280;28216;53.362;-6.288;2023-04-10T12:06:07;100103.25;;;10.47;100.00
42587;BME280;28216;53.362;-6.288;2023-04-10T12:08:34;100094.91;;;10.44;100.00
42587;BME280;28216;53.362;-6.288;2023-04-10T12:11:01;100104.94;;;10.63;100.00
42587;BME280;28216;53.362;-6.288;2023-04-10T12:13:28;100088.28;;;10.56;100.00
42587;BME280;28216;53.362;-6.288;2023-04-10T12:15:56;100101.44;;;10.71;100.00
42587;BME280;28216;53.362;-6.288;2023-04-10T12:18:22;100104.06;;;10.71;100.00
42587;BME280;28216;53.362;-6.288;2023-04-10T12:20:48;100110.56;;;10.75;100.00
42587;BME280;28216;53.362;-6.288;2023-04-10T12:23:16;100105.84;;;10.93;100.00
42587;BME280;28216;53.362;-6.288;2023-04-10T12:25:42;100093.63;;;11.00;100.00
42587;BME280;28216;53.362;-6.288;2023-04-10T12:28:07;100094.91;;;11.04;100.00
42587;BME280;28216;53.362;-6.288;2023-04-10T12:30:33;100096.78;;;11.19;100.00
42587;BME280;28216;53.362;-6.288;2023-04-10T12:32:59;100099.22;;;11.35;100.00
42587;BME280;28216;53.362;-6.288;2023-04-10T12:35:39;100102.41;;;11.30;100.00
42587;BME280;28216;53.362;-6.288;2023-04-10T12:38:04;100099.31;;;11.27;100.00
42587;BME280;28216;53.362;-6.288;2023-04-10T12:40:30;100092.25;;;11.42;100.00
42587;BME280;28216;53.362;-6.288;2023-04-10T12:42:55;100096.59;;;11.50;100.00
42587;BME280;28216;53.362;-6.288;2023-04-10T12:45:40;100087.09;;;11.78;100.00
42587;BME280;28216;53.362;-6.288;2023-04-10T12:48:06;100096.44;;;11.81;100.00
42587;BME280;28216;53.362;-6.288;2023-04-10T12:50:31;100093.00;;;11.80;100.00
42587;BME280;28216;53.362;-6.288;2023-04-10T12:53:04;100086.66;;;12.25;100.00
42587;BME280;28216;53.362;-6.288;2023-04-10T12:55:34;100086.72;;;12.32;100.00
42587;BME280;28216;53.362;-6.288;2023-04-10T12:58:15;100084.66;;;12.49;100.00
42587;BME280;28216;53.362;-6.288;2023-04-10T13:00:47;100087.41;;;12.40;100.00
42587;BME280;28216;53.362;-6.288;2023-04-10T13:03:13;100092.38;;;12.50;100.00
42587;BME280;28216;53.362;-6.288;2023-04-10T13:05:38;100090.31;;;12.67;100.00
42587;BME280;28216;53.362;-6.288;2023-04-10T13:08:04;100089.75;;;12.71;100.00
42587;BME280;28216;53.362;-6.288;2023-04-10T13:10:30;100076.44;;;13.01;100.00
42587;BME280;28216;53.362;-6.288;2023-04-10T13:12:55;100084.91;;;13.24;100.00
42587;BME280;28216;53.362;-6.288;2023-04-10T13:15:21;100079.22;;;13.21;100.00